Time;durP1;ratioP1;P1;durP2;ratioP2;P2;SDS_P1;SDS_P2;PMS_P1;PMS_P2;Temp;Humidity;BMP_temperature;BMP_pressure;BME280_temperature;BME280_humidity;BME280_pressure;Samples;Min_cycle;Max_cycle;Signal;HPM_P1;HPM_P2
2022/09/14 00:00:55;;;;;;;5.72;1.10;;;13.00;99.90;;;;;;4963578;28;20034;-82
2022/09/14 00:03:20;;;;;;;5.70;1.30;;;12.90;99.90;;;;;;4959335;28;20039;-82
2022/09/14 00:05:46;;;;;;;5.28;1.50;;;12.90;99.90;;;;;;4960997;28;20039;-82
2022/09/14 00:08:12;;;;;;;5.30;1.60;;;12.90;99.90;;;;;;4959969;28;20046;-81
2022/09/14 00:10:45;;;;;;;4.93;1.17;;;12.90;99.90;;;;;;4960816;28;20043;-82
2022/09/14 00:13:13;;;;;;;2.28;1.15;;;12.80;99.90;;;;;;4961877;28;20046;-82
2022/09/14 00:15:42;;;;;;;3.80;1.08;;;12.80;99.90;;;;;;4958094;28;20093;-82
2022/09/14 00:18:09;;;;;;;5.18;1.90;;;12.70;99.90;;;;;;4966124;28;20046;-82
2022/09/14 00:20:35;;;;;;;4.38;1.38;;;12.70;99.90;;;;;;4963703;28;20050;-82
2022/09/14 00:23:01;;;;;;;3.75;1.40;;;12.70;99.90;;;;;;4963578;28;20125;-82
2022/09/14 00:25:27;;;;;;;3.13;1.30;;;12.70;99.90;;;;;;4964991;28;20389;-82
2022/09/14 00:27:54;;;;;;;7.25;1.70;;;12.70;99.90;;;;;;4964099;28;20059;-82
2022/09/14 00:30:20;;;;;;;3.92;1.33;;;12.70;99.90;;;;;;4960767;28;20049;-81
2022/09/14 00:32:45;;;;;;;2.85;1.45;;;12.60;99.90;;;;;;4963666;28;20118;-81
2022/09/14 00:35:11;;;;;;;3.67;1.48;;;12.60;99.90;;;;;;4964997;28;20129;-81
2022/09/14 00:37:38;;;;;;;3.60;1.15;;;12.60;99.90;;;;;;4963478;28;20127;-82
2022/09/14 00:40:04;;;;;;;4.57;1.40;;;12.60;99.90;;;;;;4957848;28;20058;-82
2022/09/14 00:42:30;;;;;;;2.83;0.93;;;12.60;99.90;;;;;;4949164;28;20389;-82
2022/09/14 00:45:07;;;;;;;6.72;1.40;;;12.50;99.90;;;;;;4962708;28;20108;-83
2022/09/14 00:47:33;;;;;;;5.03;1.50;;;12.60;99.90;;;;;;4995256;28;20054;-81
2022/09/14 00:50:01;;;;;;;4.85;1.45;;;12.50;99.90;;;;;;4961276;28;20046;-82
2022/09/14 00:52:31;;;;;;;2.00;1.27;;;12.50;99.90;;;;;;4963839;28;20088;-81
2022/09/14 00:55:10;;;;;;;3.10;0.90;;;12.40;99.90;;;;;;4965105;28;20120;-82
2022/09/14 00:57:40;;;;;;;4.93;1.63;;;12.40;99.90;;;;;;4966278;28;20051;-81
2022/09/14 01:00:09;;;;;;;5.10;1.52;;;12.40;99.90;;;;;;4965368;28;20050;-82
2022/09/14 01:02:35;;;;;;;4.07;1.33;;;12.40;99.90;;;;;;4951678;28;20146;-81
2022/09/14 01:05:02;;;;;;;3.55;1.10;;;12.40;99.90;;;;;;4959704;28;20051;-82
2022/09/14 01:07:33;;;;;;;4.28;1.38;;;12.50;99.90;;;;;;4965251;28;20062;-81
2022/09/14 01:10:06;;;;;;;4.40;1.38;;;12.50;99.90;;;;;;4960920;28;20464;-81
2022/09/14 01:12:59;;;;;;;3.45;1.02;;;12.40;99.90;;;;;;4962689;28;20388;-81
2022/09/14 01:15:35;;;;;;;2.72;1.10;;;12.50;99.90;;;;;;4965301;28;20077;-82
2022/09/14 01:18:28;;;;;;;3.88;1.48;;;12.50;99.90;;;;;;4980651;28;20047;-82
2022/09/14 01:21:18;;;;;;;4.50;0.90;;;12.40;99.90;;;;;;4966468;28;20061;-81
2022/09/14 01:24:05;;;;;;;2.08;1.00;;;12.50;99.90;;;;;;4995282;28;20050;-81
2022/09/14 01:27:06;;;;;;;3.47;1.10;;;12.40;99.90;;;;;;4979042;28;20137;-81
2022/09/14 01:29:40;;;;;;;3.00;1.70;;;12.50;99.90;;;;;;4962663;28;20078;-81
2022/09/14 01:32:27;;;;;;;5.55;1.30;;;12.50;99.90;;;;;;4961864;28;20476;-82
2022/09/14 01:35:07;;;;;;;2.92;1.02;;;12.50;99.90;;;;;;4961016;28;20042;-82
2022/09/14 01:37:39;;;;;;;2.38;1.15;;;12.60;99.90;;;;;;4993903;28;20051;-82
2022/09/14 01:40:16;;;;;;;2.25;1.02;;;12.60;99.90;;;;;;4968323;28;20064;-81
2022/09/14 01:42:45;;;;;;;3.40;1.02;;;12.70;99.90;;;;;;4962016;28;20133;-82
2022/09/14 01:45:17;;;;;;;5.35;1.10;;;12.80;99.90;;;;;;4962726;28;20039;-81
2022/09/14 01:47:52;;;;;;;3.00;1.00;;;12.80;99.90;;;;;;4964391;28;20051;-81
2022/09/14 01:50:24;;;;;;;4.38;1.20;;;12.80;99.90;;;;;;4963303;28;20802;-82
2022/09/14 01:53:12;;;;;;;4.55;1.73;;;12.80;99.90;;;;;;4995047;28;20047;-82
2022/09/14 01:55:44;;;;;;;4.50;1.40;;;12.90;99.90;;;;;;4959052;28;20662;-82
2022/09/14 01:58:25;;;;;;;7.40;1.05;;;12.80;99.90;;;;;;4965816;28;20110;-81
2022/09/14 02:00:55;;;;;;;7.18;0.95;;;12.80;99.90;;;;;;4960275;28;20047;-81
2022/09/14 02:03:28;;;;;;;3.22;1.20;;;12.90;99.90;;;;;;4959695;28;20046;-82
2022/09/14 02:05:54;;;;;;;7.60;1.25;;;12.90;99.90;;;;;;4977776;28;20601;-81
2022/09/14 02:08:20;;;;;;;6.45;1.20;;;12.90;99.90;;;;;;4959960;28;20093;-82
2022/09/14 02:10:45;;;;;;;2.88;1.48;;;12.90;99.90;;;;;;4960632;28;20042;-81
2022/09/14 02:13:11;;;;;;;3.95;1.10;;;12.90;99.90;;;;;;4960127;28;20093;-81
2022/09/14 02:15:38;;;;;;;4.47;1.38;;;12.90;99.90;;;;;;4962809;28;20050;-81
2022/09/14 02:18:04;;;;;;;5.13;1.30;;;12.90;99.90;;;;;;4989684;28;20049;-81
2022/09/14 02:20:38;;;;;;;3.88;1.40;;;12.90;99.90;;;;;;4959337;28;20142;-81
2022/09/14 02:23:05;;;;;;;4.15;1.13;;;12.90;99.90;;;;;;4963415;28;20050;-81
2022/09/14 02:25:35;;;;;;;4.63;1.63;;;12.90;99.90;;;;;;4964875;28;20043;-81
2022/09/14 02:28:02;;;;;;;6.10;1.90;;;12.90;99.90;;;;;;4960506;28;20081;-81
2022/09/14 02:30:32;;;;;;;3.13;1.58;;;12.90;99.90;;;;;;4946271;28;20154;-81
2022/09/14 02:33:30;;;;;;;6.78;2.03;;;12.80;99.90;;;;;;4960487;28;20396;-81
2022/09/14 02:36:05;;;;;;;5.53;1.63;;;12.90;99.90;;;;;;4963441;28;20067;-82
2022/09/14 02:38:43;;;;;;;3.95;1.30;;;12.80;99.90;;;;;;4963008;28;20051;-81
2022/09/14 02:41:17;;;;;;;9.13;1.10;;;12.80;99.90;;;;;;4974545;28;20055;-81
2022/09/14 02:44:01;;;;;;;4.78;1.45;;;12.80;99.90;;;;;;4979271;28;20035;-82
2022/09/14 02:46:46;;;;;;;9.10;1.48;;;12.90;99.90;;;;;;4977525;28;20507;-81
2022/09/14 02:49:27;;;;;;;3.37;1.90;;;12.90;99.90;;;;;;4978939;28;20079;-82
2022/09/14 02:51:58;;;;;;;3.70;1.48;;;12.80;99.90;;;;;;4959181;28;20109;-81
2022/09/14 02:54:33;;;;;;;4.28;0.93;;;12.90;99.90;;;;;;4961931;28;20736;-82
2022/09/14 02:57:00;;;;;;;2.85;1.38;;;12.80;99.90;;;;;;4945731;28;20059;-81
2022/09/14 02:59:26;;;;;;;6.03;1.17;;;12.90;99.90;;;;;;4963006;28;20043;-81
2022/09/14 03:01:52;;;;;;;5.35;1.45;;;12.90;99.90;;;;;;4949179;28;20932;-81
2022/09/14 03:04:18;;;;;;;3.28;0.88;;;13.00;99.90;;;;;;4965165;28;20062;-81
2022/09/14 03:06:43;;;;;;;4.13;1.17;;;12.90;99.90;;;;;;4960315;28;20155;-81
2022/09/14 03:09:09;;;;;;;4.65;1.10;;;13.00;99.90;;;;;;4963460;28;20051;-82
2022/09/14 03:11:34;;;;;;;4.05;1.00;;;12.90;99.90;;;;;;4959953;28;20047;-81
2022/09/14 03:14:00;;;;;;;3.10;0.98;;;13.00;99.90;;;;;;4958375;28;20054;-81
2022/09/14 03:16:25;;;;;;;3.28;1.27;;;13.00;99.90;;;;;;4960641;28;20043;-81
2022/09/14 03:18:51;;;;;;;6.38;1.30;;;13.00;99.90;;;;;;4946879;28;20085;-82
2022/09/14 03:21:17;;;;;;;4.60;1.08;;;13.00;99.90;;;;;;4961257;28;20112;-82
2022/09/14 03:23:47;;;;;;;4.47;1.10;;;13.00;99.90;;;;;;4959839;28;20500;-81
2022/09/14 03:26:15;;;;;;;7.93;1.85;;;13.00;99.90;;;;;;4959906;28;20054;-82
2022/09/14 03:28:41;;;;;;;6.43;1.10;;;13.10;99.90;;;;;;4964244;28;20043;-82
2022/09/14 03:31:09;;;;;;;3.88;1.17;;;13.10;99.90;;;;;;4958546;28;20054;-82
2022/09/14 03:33:34;;;;;;;5.47;1.45;;;13.10;99.90;;;;;;4958677;28;20039;-82
2022/09/14 03:36:08;;;;;;;3.90;0.85;;;13.10;99.90;;;;;;4961446;28;20047;-82
2022/09/14 03:38:33;;;;;;;4.70;1.30;;;13.10;99.90;;;;;;4947750;28;20077;-81
2022/09/14 03:40:59;;;;;;;3.88;1.33;;;13.20;99.90;;;;;;4963286;28;20109;-81
2022/09/14 03:43:26;;;;;;;5.90;2.05;;;13.20;99.90;;;;;;4962375;28;20050;-82
2022/09/14 03:45:51;;;;;;;6.53;1.15;;;13.20;99.90;;;;;;4956999;28;20042;-81
2022/09/14 03:48:17;;;;;;;5.95;1.75;;;13.30;99.90;;;;;;4963169;28;20039;-81
2022/09/14 03:50:42;;;;;;;7.28;1.33;;;13.20;99.90;;;;;;4960114;28;20925;-81
2022/09/14 03:53:08;;;;;;;4.03;1.30;;;13.30;99.90;;;;;;4965066;28;20062;-81
2022/09/14 03:55:33;;;;;;;5.88;1.10;;;13.30;99.90;;;;;;4962170;28;20043;-81
2022/09/14 03:57:59;;;;;;;6.70;1.45;;;13.30;99.90;;;;;;4962997;28;20096;-81
2022/09/14 04:00:25;;;;;;;6.60;1.17;;;13.30;99.90;;;;;;4963757;28;20105;-81
2022/09/14 04:02:50;;;;;;;7.18;1.10;;;13.30;99.90;;;;;;4964269;28;20132;-80
2022/09/14 04:05:16;;;;;;;5.28;1.40;;;13.40;99.90;;;;;;4963667;28;20045;-81
2022/09/14 04:07:42;;;;;;;4.13;1.23;;;13.40;99.90;;;;;;4965382;28;20039;-81
2022/09/14 04:10:08;;;;;;;5.60;1.38;;;13.50;99.90;;;;;;4970147;28;20053;-81
2022/09/14 04:12:35;;;;;;;4.82;1.25;;;13.40;99.90;;;;;;4967228;28;20377;-83
2022/09/14 04:15:06;;;;;;;3.97;1.50;;;13.50;99.90;;;;;;4959845;28;20169;-83
2022/09/14 04:24:54;;;;;;;4.40;1.55;;;13.50;99.90;;;;;;4970780;28;20042;-82
2022/09/14 04:27:46;;;;;;;6.40;1.05;;;13.50;99.90;;;;;;4967056;28;20034;-82
2022/09/14 04:30:12;;;;;;;4.57;2.03;;;13.50;99.90;;;;;;4963855;28;20043;-84
2022/09/14 04:32:38;;;;;;;6.30;1.42;;;13.50;99.90;;;;;;4966914;28;20122;-83
2022/09/14 04:35:08;;;;;;;5.57;1.33;;;13.60;99.90;;;;;;4956700;28;20131;-82
2022/09/14 04:37:35;;;;;;;5.82;1.30;;;13.60;99.90;;;;;;4977257;28;20133;-80
2022/09/14 04:40:02;;;;;;;6.18;1.83;;;13.60;99.90;;;;;;4964363;28;20141;-82
2022/09/14 04:46:31;;;;;;;4.88;1.35;;;13.70;99.90;;;;;;4969209;28;20522;-83
2022/09/14 04:49:17;;;;;;;8.23;1.95;;;13.70;99.90;;;;;;4955828;28;20070;-84
2022/09/14 04:51:44;;;;;;;4.18;1.48;;;13.60;99.90;;;;;;4963055;28;20482;-84
2022/09/14 04:54:13;;;;;;;4.15;0.93;;;13.60;99.90;;;;;;4971827;28;20392;-85
2022/09/14 04:56:39;;;;;;;4.78;1.55;;;13.60;99.90;;;;;;4967015;28;20046;-84
2022/09/14 04:59:05;;;;;;;10.10;1.70;;;13.60;99.90;;;;;;4966387;28;20689;-84
2022/09/14 05:01:37;;;;;;;4.28;1.75;;;13.70;99.90;;;;;;4953195;28;20061;-85
2022/09/14 05:04:04;;;;;;;4.93;1.88;;;13.70;99.90;;;;;;4974953;28;20047;-84
2022/09/14 05:06:32;;;;;;;5.65;1.60;;;13.70;99.90;;;;;;4968309;28;20114;-82
2022/09/14 05:08:59;;;;;;;8.23;1.88;;;13.70;99.90;;;;;;4960446;28;20032;-83
2022/09/14 05:11:28;;;;;;;5.80;1.48;;;13.70;99.90;;;;;;4960773;28;20535;-82
2022/09/14 05:13:59;;;;;;;4.90;1.50;;;13.60;99.90;;;;;;4965014;28;20492;-85
2022/09/14 05:16:43;;;;;;;6.88;2.67;;;13.70;99.90;;;;;;4962123;28;20093;-81
2022/09/14 05:19:17;;;;;;;3.50;1.33;;;13.60;99.90;;;;;;4963842;28;20050;-82
2022/09/14 05:21:43;;;;;;;4.90;1.27;;;13.70;99.90;;;;;;4947689;28;20057;-82
2022/09/14 05:24:20;;;;;;;3.55;1.30;;;13.70;99.90;;;;;;4959701;28;20098;-81
2022/09/14 05:26:54;;;;;;;;;;;13.80;99.90;;;;;;4962205;28;20101;-81
2022/09/14 05:29:21;;;;;;;6.30;1.40;;;13.70;99.90;;;;;;4961843;28;19919;-82
2022/09/14 05:32:08;;;;;;;13.80;2.42;;;13.80;99.90;;;;;;4966307;28;20041;-82
2022/09/14 05:34:33;;;;;;;21.38;2.67;;;13.70;99.90;;;;;;4946169;28;20031;-82
2022/09/14 05:37:16;;;;;;;20.77;2.90;;;13.70;99.90;;;;;;4953556;28;20050;-83
2022/09/14 05:39:41;;;;;;;23.25;3.78;;;13.80;99.90;;;;;;4963265;28;20410;-83
2022/09/14 05:42:10;;;;;;;11.63;2.65;;;13.80;99.90;;;;;;4964837;28;20047;-85
2022/09/14 05:44:54;;;;;;;15.70;3.42;;;13.80;99.90;;;;;;4964902;28;20050;-83
2022/09/14 05:51:15;;;;;;;19.20;3.88;;;13.90;99.90;;;;;;4968031;28;20040;-82
2022/09/14 05:53:41;;;;;;;11.57;2.95;;;13.80;99.90;;;;;;4967312;28;20038;-82
2022/09/14 05:56:11;;;;;;;11.90;1.92;;;13.80;99.90;;;;;;4958982;28;20035;-82
2022/09/14 06:06:53;;;;;;;7.13;1.83;;;14.10;99.90;;;;;;4962306;28;20208;-84
2022/09/14 06:09:26;;;;;;;3.25;1.67;;;14.00;99.90;;;;;;4979201;28;20518;-84
2022/09/14 06:12:09;;;;;;;3.95;1.90;;;14.10;99.90;;;;;;4950707;28;20054;-85
2022/09/14 06:14:50;;;;;;;7.68;1.77;;;14.10;99.90;;;;;;4967283;28;20146;-82
2022/09/14 06:17:16;;;;;;;6.60;2.00;;;14.30;99.90;;;;;;4964535;28;20130;-82
2022/09/14 06:19:42;;;;;;;4.22;1.77;;;14.20;99.90;;;;;;4947170;28;20043;-82
2022/09/14 06:22:07;;;;;;;26.73;3.92;;;14.20;99.90;;;;;;4964778;28;21264;-83
2022/09/14 06:24:36;;;;;;;31.25;4.68;;;14.30;99.90;;;;;;4960436;28;20089;-82
2022/09/14 06:27:07;;;;;;;7.00;2.70;;;14.30;99.90;;;;;;4961119;28;20050;-82
2022/09/14 06:29:39;;;;;;;6.70;2.00;;;14.30;99.90;;;;;;4934167;28;20126;-82
2022/09/14 06:32:11;;;;;;;5.30;1.90;;;14.40;99.90;;;;;;4945495;28;20451;-83
2022/09/14 06:34:42;;;;;;;4.72;2.20;;;14.50;99.90;;;;;;4970897;28;20566;-82
2022/09/14 06:37:09;;;;;;;12.00;2.17;;;14.80;99.90;;;;;;4958778;28;20047;-82
2022/09/14 06:39:36;;;;;;;5.03;1.70;;;14.60;99.90;;;;;;4960455;28;20043;-82
2022/09/14 06:42:05;;;;;;;4.85;1.50;;;14.70;99.90;;;;;;4965835;28;20054;-82
2022/09/14 06:44:34;;;;;;;8.18;2.38;;;14.70;99.90;;;;;;4955699;28;20042;-82
2022/09/14 06:47:49;;;;;;;4.18;1.80;;;14.80;99.90;;;;;;4937800;28;20051;-82
2022/09/14 06:50:29;;;;;;;5.95;1.88;;;14.80;99.90;;;;;;4957541;28;20495;-82
2022/09/14 06:58:02;;;;;;;5.75;1.45;;;15.00;99.90;;;;;;4937454;28;20294;-83
2022/09/14 07:12:01;;;;;;;6.38;1.30;;;15.20;99.90;;;;;;4961728;28;20046;-82
2022/09/14 07:22:06;;;;;;;3.75;0.90;;;15.40;99.90;;;;;;4960700;28;20069;-82
2022/09/14 07:25:19;;;;;;;5.28;1.10;;;15.70;99.90;;;;;;4959661;28;20112;-83
2022/09/14 07:32:14;;;;;;;4.07;1.13;;;15.70;99.90;;;;;;4961884;28;21140;-83
2022/09/14 07:38:55;;;;;;;4.53;1.08;;;15.80;99.90;;;;;;4903355;29;20831;-83
2022/09/14 07:42:10;;;;;;;10.68;1.95;;;15.90;99.90;;;;;;4894873;29;20044;-83
2022/09/14 07:44:54;;;;;;;6.93;1.50;;;15.90;99.90;;;;;;4880432;29;20119;-83
2022/09/14 07:51:28;;;;;;;4.25;1.38;;;16.10;99.90;;;;;;4864059;29;20052;-83
2022/09/14 07:58:15;;;;;;;5.75;1.65;;;16.30;99.90;;;;;;4868040;29;20490;-83
2022/09/14 08:01:45;;;;;;;6.47;1.40;;;16.40;99.90;;;;;;4864886;29;20040;-83
2022/09/14 08:05:15;;;;;;;11.85;1.65;;;16.60;99.90;;;;;;4851013;29;20073;-83
2022/09/14 08:08:41;;;;;;;8.23;1.35;;;16.90;99.90;;;;;;4851248;29;20490;-84
2022/09/14 08:15:47;;;;;;;5.25;0.82;;;17.00;99.90;;;;;;4894983;28;20085;-83
2022/09/14 08:38:11;;;;;;;5.22;0.95;;;17.60;99.90;;;;;;4905100;29;20087;-83
2022/09/14 08:49:17;;;;;;;3.58;0.30;;;18.30;99.90;;;;;;4879739;29;20234;-83
2022/09/14 08:53:10;;;;;;;3.10;0.40;;;18.40;99.90;;;;;;4808475;29;20062;-84
2022/09/14 09:00:51;;;;;;;3.33;0.30;;;18.70;99.90;;;;;;4790353;29;20099;-83
2022/09/14 09:04:24;;;;;;;3.08;0.32;;;18.80;99.90;;;;;;4790540;29;20115;-84
2022/09/14 09:07:33;;;;;;;5.13;0.55;;;19.00;99.90;;;;;;4791352;29;20066;-83
2022/09/14 09:10:25;;;;;;;4.00;0.70;;;18.90;99.90;;;;;;4924098;28;20123;-83
2022/09/14 09:13:22;;;;;;;1.88;0.30;;;19.00;99.90;;;;;;4917118;29;20049;-82
2022/09/14 09:16:08;;;;;;;3.75;0.25;;;19.00;99.90;;;;;;4911908;28;20126;-82
2022/09/14 09:18:52;;;;;;;3.92;0.85;;;19.20;99.90;;;;;;4959314;28;20054;-82
2022/09/14 09:21:39;;;;;;;6.68;0.45;;;19.30;99.90;;;;;;4993832;28;20041;-82
2022/09/14 09:24:51;;;;;;;6.30;1.15;;;19.60;99.90;;;;;;4965322;28;20115;-82
2022/09/14 09:27:16;;;;;;;8.00;0.70;;;19.70;99.90;;;;;;4967097;28;20104;-81
2022/09/14 09:29:42;;;;;;;4.43;0.40;;;19.90;99.90;;;;;;4966578;28;20054;-81
2022/09/14 09:32:18;;;;;;;5.50;0.60;;;20.00;99.90;;;;;;4963221;28;20039;-81
2022/09/14 09:34:44;;;;;;;5.95;0.40;;;20.00;99.90;;;;;;4965530;28;20042;-82
2022/09/14 09:37:22;;;;;;;5.00;0.77;;;20.00;99.90;;;;;;4995430;28;20039;-82
2022/09/14 09:39:48;;;;;;;4.82;0.80;;;19.90;99.90;;;;;;4960917;28;20460;-82
2022/09/14 09:42:25;;;;;;;3.20;0.63;;;19.80;99.90;;;;;;4964186;28;20057;-82
2022/09/14 09:45:01;;;;;;;5.75;0.73;;;19.70;99.90;;;;;;4979940;28;20043;-82
2022/09/14 09:47:28;;;;;;;;;;;19.70;99.90;;;;;;4966869;28;20046;-83
2022/09/14 09:50:00;;;;;;;9.23;1.10;;;19.70;99.90;;;;;;4943267;28;19926;-82
2022/09/14 09:52:27;;;;;;;3.78;0.55;;;19.80;99.90;;;;;;4977652;28;20039;-82
2022/09/14 09:55:14;;;;;;;9.73;0.82;;;19.80;99.90;;;;;;4949413;28;20616;-82
2022/09/14 09:57:49;;;;;;;4.60;0.70;;;19.80;99.90;;;;;;4959595;28;20051;-82
2022/09/14 10:00:25;;;;;;;2.00;0.45;;;19.80;99.90;;;;;;4966874;28;20035;-82
2022/09/14 10:03:19;;;;;;;5.63;0.60;;;19.60;99.90;;;;;;4948145;28;20111;-82
2022/09/14 10:06:13;;;;;;;3.58;0.80;;;19.70;99.90;;;;;;4967952;28;20073;-82
2022/09/14 10:08:46;;;;;;;4.50;1.05;;;19.60;99.90;;;;;;4979848;28;20037;-82
2022/09/14 10:12:04;;;;;;;6.55;0.88;;;19.90;99.90;;;;;;4947867;28;20035;-82
2022/09/14 10:14:37;;;;;;;7.35;0.75;;;20.30;99.90;;;;;;4942234;28;20042;-82
2022/09/14 10:27:59;;;;;;;5.13;0.93;;;21.60;99.90;;;;;;4959685;28;20128;-82
2022/09/14 10:30:48;;;;;;;3.20;0.40;;;21.80;99.90;;;;;;4944619;28;20472;-81
2022/09/14 10:33:16;;;;;;;5.95;0.40;;;21.70;99.90;;;;;;4934605;28;20157;-81
2022/09/14 10:35:49;;;;;;;3.80;0.60;;;21.60;99.90;;;;;;4956120;28;20492;-81
2022/09/14 10:38:28;;;;;;;4.00;0.40;;;21.40;99.90;;;;;;4966696;28;20103;-81
2022/09/14 10:41:26;;;;;;;3.33;0.55;;;21.40;99.90;;;;;;4951652;28;20043;-81
2022/09/14 10:44:32;;;;;;;4.40;0.47;;;21.30;99.90;;;;;;4968884;28;20523;-82
2022/09/14 10:47:34;;;;;;;8.43;0.70;;;21.40;99.90;;;;;;4968341;28;20061;-81
2022/09/14 10:50:41;;;;;;;4.88;1.00;;;21.30;99.90;;;;;;4964805;28;20063;-81
2022/09/14 10:53:32;;;;;;;5.95;0.73;;;21.30;99.90;;;;;;4977517;28;20578;-82
2022/09/14 10:56:20;;;;;;;6.10;0.60;;;21.40;99.90;;;;;;4965267;28;20031;-81
2022/09/14 10:58:55;;;;;;;1.80;0.55;;;21.40;99.90;;;;;;4950448;28;20488;-82
2022/09/14 11:01:42;;;;;;;3.90;0.40;;;21.60;99.90;;;;;;4978603;28;20039;-82
2022/09/14 11:04:17;;;;;;;5.82;0.80;;;21.90;99.90;;;;;;4962546;28;20125;-82
2022/09/14 11:06:57;;;;;;;3.88;1.05;;;22.10;99.90;;;;;;4965982;28;20053;-82
2022/09/14 11:09:29;;;;;;;3.38;0.40;;;22.20;99.90;;;;;;4965042;28;20109;-82
2022/09/14 11:12:26;;;;;;;4.30;0.65;;;22.40;99.90;;;;;;4959906;28;20938;-82
2022/09/14 11:15:17;;;;;;;5.20;0.55;;;22.60;99.90;;;;;;4960894;28;20648;-82
2022/09/14 11:17:58;;;;;;;6.35;0.70;;;22.80;99.90;;;;;;4948014;28;20065;-82
2022/09/14 11:20:31;;;;;;;4.18;1.20;;;23.00;99.90;;;;;;4964073;28;20047;-82
2022/09/14 11:23:18;;;;;;;2.28;0.38;;;23.30;99.90;;;;;;4967246;28;20566;-81
2022/09/14 11:26:01;;;;;;;4.88;0.95;;;23.10;99.90;;;;;;4976479;28;20059;-81
2022/09/14 11:28:42;;;;;;;5.35;1.35;;;22.70;99.90;;;;;;4948695;28;20109;-81
2022/09/14 11:31:32;;;;;;;2.58;0.60;;;22.40;99.90;;;;;;4963808;28;20031;-82
2022/09/14 11:34:12;;;;;;;2.85;0.50;;;22.30;99.90;;;;;;4966089;28;20158;-81
2022/09/14 11:36:43;;;;;;;5.50;0.47;;;22.50;99.90;;;;;;4994517;28;20422;-82
2022/09/14 11:39:41;;;;;;;2.15;0.40;;;22.50;99.90;;;;;;4963596;28;20057;-81
2022/09/14 11:42:32;;;;;;;2.83;0.57;;;22.40;99.90;;;;;;4955343;28;20459;-82
2022/09/14 11:45:04;;;;;;;2.50;0.68;;;22.30;99.90;;;;;;4961584;28;20049;-82
2022/09/14 11:47:39;;;;;;;6.00;0.73;;;22.10;99.90;;;;;;4962234;28;20034;-82
2022/09/14 11:50:17;;;;;;;2.28;0.47;;;22.10;99.90;;;;;;4978671;28;20047;-82
2022/09/14 11:52:42;;;;;;;4.57;0.88;;;22.30;99.90;;;;;;4973410;28;20038;-81
2022/09/14 11:55:14;;;;;;;14.50;0.47;;;22.10;99.90;;;;;;4964011;28;20610;-81
2022/09/14 11:57:44;;;;;;;4.40;0.75;;;22.10;99.90;;;;;;4965000;28;20038;-81
2022/09/14 12:00:22;;;;;;;4.22;0.60;;;22.10;99.90;;;;;;4964939;28;20046;-82
2022/09/14 12:03:12;;;;;;;4.72;1.13;;;22.00;99.90;;;;;;4960352;28;20098;-81
2022/09/14 12:05:39;;;;;;;4.50;0.43;;;21.90;99.90;;;;;;4948002;28;20038;-82
2022/09/14 12:08:26;;;;;;;4.80;0.40;;;21.90;99.90;;;;;;4960435;28;20070;-82
2022/09/14 12:11:04;;;;;;;5.10;0.50;;;21.90;99.90;;;;;;4963616;28;20132;-82
2022/09/14 12:13:30;;;;;;;3.05;0.50;;;21.90;99.90;;;;;;4966218;28;20414;-82
2022/09/14 12:16:04;;;;;;;6.07;0.60;;;21.90;99.90;;;;;;4968406;28;20399;-82
2022/09/14 12:18:31;;;;;;;3.45;0.30;;;21.90;99.90;;;;;;4966873;28;20097;-82
2022/09/14 12:21:01;;;;;;;2.72;0.50;;;21.90;99.90;;;;;;4967630;28;20058;-82
2022/09/14 12:23:36;;;;;;;4.28;0.63;;;22.00;99.90;;;;;;4994274;28;20047;-81
2022/09/14 12:26:11;;;;;;;9.98;0.57;;;22.00;99.90;;;;;;4963337;28;20117;-81
2022/09/14 12:28:46;;;;;;;6.32;0.50;;;22.10;99.90;;;;;;4967168;28;20357;-82
2022/09/14 12:31:46;;;;;;;4.45;1.30;;;22.10;99.90;;;;;;4966519;28;20098;-82
2022/09/14 12:34:34;;;;;;;1.52;0.45;;;22.00;99.90;;;;;;4967383;28;20518;-81
2022/09/14 12:37:03;;;;;;;2.90;0.73;;;21.80;99.90;;;;;;4960772;28;20058;-81
2022/09/14 12:39:34;;;;;;;3.58;0.50;;;21.90;99.90;;;;;;4966062;28;20046;-81
2022/09/14 12:42:20;;;;;;;5.80;0.95;;;22.10;99.90;;;;;;4969527;28;20051;-81
2022/09/14 12:44:45;;;;;;;3.97;0.38;;;22.30;99.90;;;;;;4964612;28;20077;-82
2022/09/14 12:47:23;;;;;;;4.68;0.88;;;22.40;99.90;;;;;;4964760;28;20070;-81
2022/09/14 12:49:49;;;;;;;3.10;0.65;;;22.50;99.90;;;;;;4967162;28;20340;-81
2022/09/14 12:52:31;;;;;;;3.35;0.55;;;22.40;99.90;;;;;;4995404;28;20153;-82
2022/09/14 12:55:28;;;;;;;3.45;0.60;;;22.30;99.90;;;;;;4965219;28;20053;-81
2022/09/14 12:58:11;;;;;;;3.28;0.40;;;22.30;99.90;;;;;;4962788;28;20050;-82
2022/09/14 13:00:58;;;;;;;12.30;0.73;;;22.40;99.90;;;;;;4965918;28;20046;-81
2022/09/14 13:03:46;;;;;;;4.22;0.63;;;22.50;99.90;;;;;;4966959;28;20519;-82
2022/09/14 13:06:13;;;;;;;1.90;0.50;;;22.40;99.90;;;;;;4964951;28;20134;-82
2022/09/14 13:08:44;;;;;;;4.15;0.50;;;22.30;99.90;;;;;;4964583;28;20145;-83
2022/09/14 13:11:16;;;;;;;2.60;0.82;;;22.20;99.90;;;;;;4965664;28;20043;-82
2022/09/14 13:13:42;;;;;;;3.78;0.60;;;22.10;99.90;;;;;;4966691;28;20078;-82
2022/09/14 13:16:18;;;;;;;3.67;0.60;;;22.00;99.90;;;;;;4966826;28;20055;-82
2022/09/14 13:18:44;;;;;;;4.72;0.52;;;22.00;99.90;;;;;;4963761;28;20051;-82
2022/09/14 13:21:21;;;;;;;4.78;0.85;;;22.00;99.90;;;;;;4964590;28;20068;-82
2022/09/14 13:23:47;;;;;;;2.30;0.60;;;22.00;99.90;;;;;;4966245;28;20090;-83
2022/09/14 13:26:24;;;;;;;3.78;0.68;;;22.10;99.90;;;;;;4965888;28;20057;-81
2022/09/14 13:28:52;;;;;;;3.92;0.57;;;22.20;99.90;;;;;;4965378;28;20170;-82
2022/09/14 13:31:33;;;;;;;4.95;0.68;;;22.20;99.90;;;;;;4965137;28;20043;-82
2022/09/14 13:34:01;;;;;;;3.67;0.40;;;22.30;99.90;;;;;;4966059;28;20047;-82
2022/09/14 13:36:30;;;;;;;3.53;0.60;;;22.30;99.90;;;;;;4985324;28;20053;-81
2022/09/14 13:39:00;;;;;;;5.28;0.65;;;22.50;99.90;;;;;;4981896;28;20082;-82
2022/09/14 13:41:27;;;;;;;7.03;0.60;;;22.70;99.90;;;;;;4982609;28;20038;-82
2022/09/14 13:43:54;;;;;;;1.83;0.40;;;22.80;99.90;;;;;;4965032;28;20065;-82
2022/09/14 13:46:25;;;;;;;2.65;0.40;;;23.00;99.90;;;;;;4967251;28;20070;-82
2022/09/14 13:48:52;;;;;;;3.88;0.73;;;22.70;99.90;;;;;;4969970;28;20043;-82
2022/09/14 13:51:26;;;;;;;4.00;0.40;;;22.70;99.90;;;;;;4964255;28;20127;-82
2022/09/14 13:53:54;;;;;;;2.97;0.52;;;22.60;99.90;;;;;;4965183;28;20034;-82
2022/09/14 13:56:31;;;;;;;2.22;0.40;;;22.30;99.90;;;;;;4995944;28;20157;-83
2022/09/14 13:59:17;;;;;;;4.18;0.50;;;22.20;99.90;;;;;;4964893;28;20069;-81
2022/09/14 14:01:53;;;;;;;4.85;0.63;;;22.10;99.90;;;;;;4969423;28;20053;-83
2022/09/14 14:05:11;;;;;;;3.10;0.60;;;21.90;99.90;;;;;;4964611;28;20043;-82
2022/09/14 14:08:37;;;;;;;3.08;0.50;;;21.90;99.90;;;;;;4915045;29;20055;-82
2022/09/14 14:11:06;;;;;;;3.03;0.73;;;21.60;99.90;;;;;;4902141;29;20584;-82
2022/09/14 14:13:34;;;;;;;3.38;0.43;;;21.50;99.90;;;;;;4958703;28;20594;-81
2022/09/14 14:16:35;;;;;;;6.70;0.73;;;21.30;99.90;;;;;;4970229;28;20479;-82
2022/09/14 14:19:01;;;;;;;3.30;0.60;;;21.20;99.90;;;;;;4946555;28;20622;-81
2022/09/14 14:21:31;;;;;;;3.40;0.50;;;21.20;99.90;;;;;;4966449;28;20138;-81
2022/09/14 14:24:25;;;;;;;3.42;0.70;;;21.20;99.90;;;;;;4968308;28;20042;-81
2022/09/14 14:26:55;;;;;;;7.05;0.77;;;21.20;99.90;;;;;;4964428;28;20054;-82
2022/09/14 14:29:22;;;;;;;6.00;0.70;;;21.20;99.90;;;;;;4964329;28;20039;-81
2022/09/14 14:31:48;;;;;;;2.90;0.65;;;21.20;99.90;;;;;;5003109;28;20047;-81
2022/09/14 14:34:26;;;;;;;5.18;1.10;;;21.20;99.90;;;;;;4967207;28;20046;-81
2022/09/14 14:36:53;;;;;;;3.13;0.63;;;21.20;99.90;;;;;;4966770;28;20046;-81
2022/09/14 14:39:20;;;;;;;5.65;1.15;;;21.30;99.90;;;;;;4965481;28;20436;-81
2022/09/14 14:41:48;;;;;;;4.60;1.27;;;21.30;99.90;;;;;;4966902;28;20056;-81
2022/09/14 14:44:22;;;;;;;8.02;1.67;;;21.30;99.90;;;;;;4969521;28;20117;-82
2022/09/14 14:46:47;;;;;;;9.57;1.45;;;21.50;99.90;;;;;;4993341;28;20086;-81
2022/09/14 14:49:14;;;;;;;4.43;0.63;;;21.30;99.90;;;;;;4965122;28;20085;-81
2022/09/14 14:51:40;;;;;;;6.28;0.70;;;21.30;99.90;;;;;;4965831;28;20062;-81
2022/09/14 14:54:09;;;;;;;4.28;0.70;;;21.20;99.90;;;;;;4968606;28;20066;-82
2022/09/14 14:56:35;;;;;;;4.07;1.25;;;21.20;99.90;;;;;;4967056;28;20451;-81
2022/09/14 14:59:22;;;;;;;4.60;0.70;;;21.10;99.90;;;;;;4981252;28;20137;-83
2022/09/14 15:01:48;;;;;;;3.83;0.60;;;21.20;99.90;;;;;;4967728;28;20078;-81
2022/09/14 15:04:14;;;;;;;6.18;0.90;;;21.10;99.90;;;;;;4965739;28;20047;-81
2022/09/14 15:06:40;;;;;;;6.00;0.95;;;21.00;99.90;;;;;;4965482;28;20047;-81
2022/09/14 15:09:12;;;;;;;2.75;0.60;;;20.80;99.90;;;;;;4962574;28;20130;-81
2022/09/14 15:11:57;;;;;;;6.25;0.77;;;20.80;99.90;;;;;;4966098;28;20039;-85
2022/09/14 15:14:24;;;;;;;1.58;0.47;;;20.60;99.90;;;;;;4981356;28;20038;-82
2022/09/14 15:16:58;;;;;;;4.38;0.68;;;20.50;99.90;;;;;;4964206;28;20042;-83
2022/09/14 15:19:27;;;;;;;11.27;0.98;;;20.40;99.90;;;;;;4946481;28;20054;-79
2022/09/14 15:21:53;;;;;;;3.55;0.50;;;20.30;99.90;;;;;;4970664;28;20047;-81